sensor_id;sensor_type;location;lat;lon;timestamp;P1;durP1;ratioP1;P2;durP2;ratioP2
42632;SDS011;28261;53.304;-6.284;2023-04-24T00:01:38;13.27;;;7.80;;
42632;SDS011;28261;53.304;-6.284;2023-04-24T00:03:42;13.23;;;8.77;;
42632;SDS011;28261;53.304;-6.284;2023-04-24T00:05:47;12.98;;;8.43;;
42632;SDS011;28261;53.304;-6.284;2023-04-24T00:07:51;13.30;;;7.40;;
42632;SDS011;28261;53.304;-6.284;2023-04-24T00:09:56;13.25;;;7.00;;
42632;SDS011;28261;53.304;-6.284;2023-04-24T00:12:01;12.02;;;7.18;;
42632;SDS011;28261;53.304;-6.284;2023-04-24T00:14:06;12.93;;;7.45;;
42632;SDS011;28261;53.304;-6.284;2023-04-24T00:16:12;11.63;;;7.35;;
42632;SDS011;28261;53.304;-6.284;2023-04-24T00:18:16;10.70;;;7.10;;
42632;SDS011;28261;53.304;-6.284;2023-04-24T00:20:21;15.10;;;7.38;;
42632;SDS011;28261;53.304;-6.284;2023-04-24T00:22:27;14.10;;;7.97;;
42632;SDS011;28261;53.304;-6.284;2023-04-24T00:24:32;15.02;;;7.75;;
42632;SDS011;28261;53.304;-6.284;2023-04-24T00:26:37;10.40;;;6.78;;
42632;SDS011;28261;53.304;-6.284;2023-04-24T00:28:41;14.15;;;7.80;;
42632;SDS011;28261;53.304;-6.284;2023-04-24T00:30:45;11.40;;;6.75;;
42632;SDS011;28261;53.304;-6.284;2023-04-24T00:32:50;13.70;;;6.70;;
42632;SDS011;28261;53.304;-6.284;2023-04-24T00:34:56;13.10;;;7.13;;
42632;SDS011;28261;53.304;-6.284;2023-04-24T00:37:00;14.77;;;7.85;;
42632;SDS011;28261;53.304;-6.284;2023-04-24T00:39:05;14.48;;;7.35;;
42632;SDS011;28261;53.304;-6.284;2023-04-24T00:41:10;15.20;;;7.30;;
42632;SDS011;28261;53.304;-6.284;2023-04-24T00:43:14;12.75;;;6.78;;
42632;SDS011;28261;53.304;-6.284;2023-04-24T00:45:19;12.43;;;7.38;;
42632;SDS011;28261;53.304;-6.284;2023-04-24T00:47:23;11.38;;;7.05;;
42632;SDS011;28261;53.304;-6.284;2023-04-24T00:49:30;14.05;;;7.47;;
42632;SDS011;28261;53.304;-6.284;2023-04-24T00:51:34;15.98;;;7.60;;
42632;SDS011;28261;53.304;-6.284;2023-04-24T00:53:38;12.88;;;7.40;;
42632;SDS011;28261;53.304;-6.284;2023-04-24T00:55:42;13.95;;;7.45;;
42632;SDS011;28261;53.304;-6.284;2023-04-24T00:57:47;15.02;;;7.22;;
42632;SDS011;28261;53.304;-6.284;2023-04-24T00:59:53;15.65;;;7.78;;
42632;SDS011;28261;53.304;-6.284;2023-04-24T01:01:57;14.50;;;7.43;;
42632;SDS011;28261;53.304;-6.284;2023-04-24T01:04:04;15.48;;;7.50;;
42632;SDS011;28261;53.304;-6.284;2023-04-24T01:06:12;12.15;;;7.47;;
42632;SDS011;28261;53.304;-6.284;2023-04-24T01:08:18;12.20;;;6.97;;
42632;SDS011;28261;53.304;-6.284;2023-04-24T01:10:24;14.75;;;7.18;;
42632;SDS011;28261;53.304;-6.284;2023-04-24T01:12:30;11.50;;;7.63;;
42632;SDS011;28261;53.304;-6.284;2023-04-24T01:14:34;14.07;;;7.50;;
42632;SDS011;28261;53.304;-6.284;2023-04-24T01:16:39;16.70;;;8.77;;
42632;SDS011;28261;53.304;-6.284;2023-04-24T01:18:45;13.77;;;8.38;;
42632;SDS011;28261;53.304;-6.284;2023-04-24T01:20:54;15.07;;;7.28;;
42632;SDS011;28261;53.304;-6.284;2023-04-24T01:23:06;16.70;;;7.90;;
42632;SDS011;28261;53.304;-6.284;2023-04-24T01:25:11;13.52;;;8.35;;
42632;SDS011;28261;53.304;-6.284;2023-04-24T01:27:16;13.70;;;7.85;;
42632;SDS011;28261;53.304;-6.284;2023-04-24T01:29:21;18.73;;;9.48;;
42632;SDS011;28261;53.304;-6.284;2023-04-24T01:31:25;14.10;;;7.50;;
42632;SDS011;28261;53.304;-6.284;2023-04-24T01:33:29;14.75;;;8.05;;
42632;SDS011;28261;53.304;-6.284;2023-04-24T01:35:33;13.90;;;7.93;;
42632;SDS011;28261;53.304;-6.284;2023-04-24T01:37:37;14.98;;;7.60;;
42632;SDS011;28261;53.304;-6.284;2023-04-24T01:39:42;12.15;;;7.15;;
42632;SDS011;28261;53.304;-6.284;2023-04-24T01:41:46;13.88;;;7.53;;
42632;SDS011;28261;53.304;-6.284;2023-04-24T01:43:53;13.77;;;7.38;;
42632;SDS011;28261;53.304;-6.284;2023-04-24T01:45:56;13.30;;;7.85;;
42632;SDS011;28261;53.304;-6.284;2023-04-24T01:48:00;16.30;;;8.30;;
42632;SDS011;28261;53.304;-6.284;2023-04-24T01:50:04;18.60;;;7.80;;
42632;SDS011;28261;53.304;-6.284;2023-04-24T01:52:09;14.65;;;8.23;;
42632;SDS011;28261;53.304;-6.284;2023-04-24T01:54:12;17.27;;;7.47;;
42632;SDS011;28261;53.304;-6.284;2023-04-24T01:56:17;14.38;;;7.78;;
42632;SDS011;28261;53.304;-6.284;2023-04-24T01:58:22;13.70;;;8.45;;
42632;SDS011;28261;53.304;-6.284;2023-04-24T02:00:26;13.70;;;8.48;;
42632;SDS011;28261;53.304;-6.284;2023-04-24T02:02:29;15.52;;;8.18;;
42632;SDS011;28261;53.304;-6.284;2023-04-24T02:04:33;10.88;;;7.22;;
42632;SDS011;28261;53.304;-6.284;2023-04-24T02:06:37;16.17;;;7.65;;
42632;SDS011;28261;53.304;-6.284;2023-04-24T02:08:40;14.05;;;7.22;;
42632;SDS011;28261;53.304;-6.284;2023-04-24T02:10:44;11.48;;;6.05;;
42632;SDS011;28261;53.304;-6.284;2023-04-24T02:12:49;12.60;;;7.40;;
42632;SDS011;28261;53.304;-6.284;2023-04-24T02:14:52;13.43;;;7.82;;
42632;SDS011;28261;53.304;-6.284;2023-04-24T02:16:56;12.85;;;6.32;;
42632;SDS011;28261;53.304;-6.284;2023-04-24T02:18:59;11.70;;;7.18;;
42632;SDS011;28261;53.304;-6.284;2023-04-24T02:21:02;13.90;;;7.63;;
42632;SDS011;28261;53.304;-6.284;2023-04-24T02:23:06;14.75;;;8.15;;
42632;SDS011;28261;53.304;-6.284;2023-04-24T02:25:09;14.90;;;7.85;;
42632;SDS011;28261;53.304;-6.284;2023-04-24T02:27:13;17.05;;;8.45;;
42632;SDS011;28261;53.304;-6.284;2023-04-24T02:29:18;12.48;;;7.43;;
42632;SDS011;28261;53.304;-6.284;2023-04-24T02:31:24;20.45;;;9.02;;
42632;SDS011;28261;53.304;-6.284;2023-04-24T02:33:27;12.02;;;6.43;;
42632;SDS011;28261;53.304;-6.284;2023-04-24T02:35:31;14.25;;;7.68;;
42632;SDS011;28261;53.304;-6.284;2023-04-24T02:37:34;17.38;;;7.20;;
42632;SDS011;28261;53.304;-6.284;2023-04-24T02:39:38;13.30;;;7.93;;
42632;SDS011;28261;53.304;-6.284;2023-04-24T02:41:41;12.90;;;6.45;;
42632;SDS011;28261;53.304;-6.284;2023-04-24T02:43:45;15.25;;;7.13;;
42632;SDS011;28261;53.304;-6.284;2023-04-24T02:45:50;13.88;;;6.72;;
42632;SDS011;28261;53.304;-6.284;2023-04-24T02:47:54;11.98;;;5.93;;
42632;SDS011;28261;53.304;-6.284;2023-04-24T02:49:57;12.30;;;6.88;;
42632;SDS011;28261;53.304;-6.284;2023-04-24T02:52:01;14.05;;;6.65;;
42632;SDS011;28261;53.304;-6.284;2023-04-24T02:54:05;12.07;;;6.30;;
42632;SDS011;28261;53.304;-6.284;2023-04-24T02:56:08;10.18;;;6.65;;
42632;SDS011;28261;53.304;-6.284;2023-04-24T02:58:13;13.35;;;7.15;;
42632;SDS011;28261;53.304;-6.284;2023-04-24T03:00:17;16.05;;;6.80;;
42632;SDS011;28261;53.304;-6.284;2023-04-24T03:02:22;13.98;;;7.57;;
42632;SDS011;28261;53.304;-6.284;2023-04-24T03:04:26;12.63;;;6.50;;
42632;SDS011;28261;53.304;-6.284;2023-04-24T03:06:29;16.00;;;7.07;;
42632;SDS011;28261;53.304;-6.284;2023-04-24T03:08:34;12.18;;;7.20;;
42632;SDS011;28261;53.304;-6.284;2023-04-24T03:10:38;14.50;;;7.03;;
42632;SDS011;28261;53.304;-6.284;2023-04-24T03:12:42;13.18;;;7.15;;
42632;SDS011;28261;53.304;-6.284;2023-04-24T03:14:46;12.60;;;6.70;;
42632;SDS011;28261;53.304;-6.284;2023-04-24T03:16:49;15.75;;;6.93;;
42632;SDS011;28261;53.304;-6.284;2023-04-24T03:18:54;14.20;;;6.78;;
42632;SDS011;28261;53.304;-6.284;2023-04-24T03:21:00;15.52;;;7.82;;
42632;SDS011;28261;53.304;-6.284;2023-04-24T03:23:05;15.85;;;7.85;;
42632;SDS011;28261;53.304;-6.284;2023-04-24T03:25:10;17.70;;;7.60;;
42632;SDS011;28261;53.304;-6.284;2023-04-24T03:27:14;16.88;;;8.07;;
42632;SDS011;28261;53.304;-6.284;2023-04-24T03:29:38;12.07;;;7.68;;
42632;SDS011;28261;53.304;-6.284;2023-04-24T03:31:41;16.15;;;7.35;;
42632;SDS011;28261;53.304;-6.284;2023-04-24T03:33:45;12.23;;;6.47;;
42632;SDS011;28261;53.304;-6.284;2023-04-24T03:35:50;14.80;;;7.13;;
42632;SDS011;28261;53.304;-6.284;2023-04-24T03:37:54;11.70;;;6.47;;
42632;SDS011;28261;53.304;-6.284;2023-04-24T03:40:23;13.55;;;7.15;;
42632;SDS011;28261;53.304;-6.284;2023-04-24T03:42:27;13.82;;;7.35;;
42632;SDS011;28261;53.304;-6.284;2023-04-24T03:44:30;16.67;;;6.88;;
42632;SDS011;28261;53.304;-6.284;2023-04-24T03:46:34;13.05;;;7.07;;
42632;SDS011;28261;53.304;-6.284;2023-04-24T03:48:37;15.25;;;7.65;;
42632;SDS011;28261;53.304;-6.284;2023-04-24T03:50:42;15.73;;;7.63;;
42632;SDS011;28261;53.304;-6.284;2023-04-24T03:52:48;15.55;;;7.15;;
42632;SDS011;28261;53.304;-6.284;2023-04-24T03:55:06;14.00;;;7.93;;
42632;SDS011;28261;53.304;-6.284;2023-04-24T03:57:16;14.88;;;6.97;;
42632;SDS011;28261;53.304;-6.284;2023-04-24T03:59:32;18.00;;;8.85;;
42632;SDS011;28261;53.304;-6.284;2023-04-24T04:01:45;13.13;;;7.53;;
42632;SDS011;28261;53.304;-6.284;2023-04-24T04:03:50;15.70;;;7.72;;
42632;SDS011;28261;53.304;-6.284;2023-04-24T04:05:57;15.60;;;7.72;;
42632;SDS011;28261;53.304;-6.284;2023-04-24T04:08:02;15.27;;;7.78;;
42632;SDS011;28261;53.304;-6.284;2023-04-24T04:10:07;16.38;;;8.82;;
42632;SDS011;28261;53.304;-6.284;2023-04-24T04:12:11;12.63;;;6.85;;
42632;SDS011;28261;53.304;-6.284;2023-04-24T04:14:15;13.98;;;8.40;;
42632;SDS011;28261;53.304;-6.284;2023-04-24T04:16:22;10.73;;;5.70;;
42632;SDS011;28261;53.304;-6.284;2023-04-24T04:18:32;9.52;;;5.03;;
42632;SDS011;28261;53.304;-6.284;2023-04-24T04:20:38;7.68;;;4.40;;
42632;SDS011;28261;53.304;-6.284;2023-04-24T04:22:41;7.22;;;4.13;;
42632;SDS011;28261;53.304;-6.284;2023-04-24T04:24:52;8.93;;;4.40;;
42632;SDS011;28261;53.304;-6.284;2023-04-24T04:26:58;9.10;;;3.83;;
42632;SDS011;28261;53.304;-6.284;2023-04-24T04:29:06;8.02;;;3.75;;
42632;SDS011;28261;53.304;-6.284;2023-04-24T04:31:13;4.57;;;3.05;;
42632;SDS011;28261;53.304;-6.284;2023-04-24T04:33:18;5.45;;;2.97;;
42632;SDS011;28261;53.304;-6.284;2023-04-24T04:35:22;7.25;;;2.38;;
42632;SDS011;28261;53.304;-6.284;2023-04-24T04:37:27;6.75;;;2.53;;
42632;SDS011;28261;53.304;-6.284;2023-04-24T04:39:47;6.15;;;2.83;;
42632;SDS011;28261;53.304;-6.284;2023-04-24T04:41:56;5.35;;;2.40;;
42632;SDS011;28261;53.304;-6.284;2023-04-24T04:46:11;5.07;;;2.25;;
42632;SDS011;28261;53.304;-6.284;2023-04-24T04:48:26;4.15;;;2.58;;
42632;SDS011;28261;53.304;-6.284;2023-04-24T04:50:33;6.88;;;2.75;;
42632;SDS011;28261;53.304;-6.284;2023-04-24T04:52:41;4.60;;;2.55;;
42632;SDS011;28261;53.304;-6.284;2023-04-24T04:54:59;4.32;;;2.30;;
42632;SDS011;28261;53.304;-6.284;2023-04-24T04:57:24;6.05;;;2.70;;
42632;SDS011;28261;53.304;-6.284;2023-04-24T04:59:30;7.85;;;2.83;;
42632;SDS011;28261;53.304;-6.284;2023-04-24T05:01:39;9.63;;;3.55;;
42632;SDS011;28261;53.304;-6.284;2023-04-24T05:03:46;7.40;;;2.17;;
42632;SDS011;28261;53.304;-6.284;2023-04-24T05:05:51;4.28;;;2.53;;
42632;SDS011;28261;53.304;-6.284;2023-04-24T05:07:56;5.47;;;1.90;;
42632;SDS011;28261;53.304;-6.284;2023-04-24T05:10:00;6.78;;;1.83;;
42632;SDS011;28261;53.304;-6.284;2023-04-24T05:12:04;8.40;;;2.10;;
42632;SDS011;28261;53.304;-6.284;2023-04-24T05:14:15;8.60;;;1.80;;
42632;SDS011;28261;53.304;-6.284;2023-04-24T05:16:20;3.60;;;1.45;;
42632;SDS011;28261;53.304;-6.284;2023-04-24T05:18:27;3.88;;;1.55;;
42632;SDS011;28261;53.304;-6.284;2023-04-24T05:20:31;5.05;;;1.80;;
42632;SDS011;28261;53.304;-6.284;2023-04-24T05:22:36;9.80;;;3.08;;
42632;SDS011;28261;53.304;-6.284;2023-04-24T05:24:40;4.68;;;2.15;;
42632;SDS011;28261;53.304;-6.284;2023-04-24T05:27:07;5.25;;;1.98;;
42632;SDS011;28261;53.304;-6.284;2023-04-24T05:29:16;20.02;;;2.67;;
42632;SDS011;28261;53.304;-6.284;2023-04-24T05:31:21;11.15;;;2.78;;
42632;SDS011;28261;53.304;-6.284;2023-04-24T05:33:26;11.20;;;3.00;;
42632;SDS011;28261;53.304;-6.284;2023-04-24T05:35:31;16.85;;;2.95;;
42632;SDS011;28261;53.304;-6.284;2023-04-24T05:37:35;8.60;;;2.42;;
42632;SDS011;28261;53.304;-6.284;2023-04-24T05:39:41;11.43;;;2.85;;
42632;SDS011;28261;53.304;-6.284;2023-04-24T05:41:46;12.57;;;2.50;;
42632;SDS011;28261;53.304;-6.284;2023-04-24T05:43:50;12.63;;;2.70;;
42632;SDS011;28261;53.304;-6.284;2023-04-24T05:48:00;10.60;;;2.35;;
42632;SDS011;28261;53.304;-6.284;2023-04-24T05:50:07;8.93;;;1.95;;
42632;SDS011;28261;53.304;-6.284;2023-04-24T05:52:15;16.35;;;2.20;;
42632;SDS011;28261;53.304;-6.284;2023-04-24T05:54:21;9.75;;;2.42;;
42632;SDS011;28261;53.304;-6.284;2023-04-24T05:56:26;8.18;;;2.92;;
42632;SDS011;28261;53.304;-6.284;2023-04-24T05:58:32;6.80;;;2.42;;
42632;SDS011;28261;53.304;-6.284;2023-04-24T06:00:36;8.75;;;3.08;;
42632;SDS011;28261;53.304;-6.284;2023-04-24T06:02:44;11.95;;;2.53;;
42632;SDS011;28261;53.304;-6.284;2023-04-24T06:04:48;10.45;;;2.50;;
42632;SDS011;28261;53.304;-6.284;2023-04-24T06:06:54;8.55;;;2.65;;
42632;SDS011;28261;53.304;-6.284;2023-04-24T06:08:59;11.93;;;2.72;;
42632;SDS011;28261;53.304;-6.284;2023-04-24T06:11:05;9.63;;;2.40;;
42632;SDS011;28261;53.304;-6.284;2023-04-24T06:13:12;6.72;;;2.15;;
42632;SDS011;28261;53.304;-6.284;2023-04-24T06:15:30;5.32;;;1.63;;
42632;SDS011;28261;53.304;-6.284;2023-04-24T06:17:47;11.98;;;2.90;;
42632;SDS011;28261;53.304;-6.284;2023-04-24T06:19:52;8.85;;;2.22;;
42632;SDS011;28261;53.304;-6.284;2023-04-24T06:22:00;10.07;;;2.42;;
42632;SDS011;28261;53.304;-6.284;2023-04-24T06:26:09;9.95;;;1.88;;
42632;SDS011;28261;53.304;-6.284;2023-04-24T06:28:13;7.82;;;1.98;;
42632;SDS011;28261;53.304;-6.284;2023-04-24T06:30:18;4.53;;;1.73;;
42632;SDS011;28261;53.304;-6.284;2023-04-24T06:32:22;6.32;;;2.00;;
42632;SDS011;28261;53.304;-6.284;2023-04-24T06:34:29;7.05;;;2.20;;
42632;SDS011;28261;53.304;-6.284;2023-04-24T06:36:34;6.78;;;1.90;;
42632;SDS011;28261;53.304;-6.284;2023-04-24T06:38:39;5.45;;;1.80;;
42632;SDS011;28261;53.304;-6.284;2023-04-24T06:40:44;6.32;;;2.20;;
42632;SDS011;28261;53.304;-6.284;2023-04-24T06:42:49;11.85;;;2.40;;
42632;SDS011;28261;53.304;-6.284;2023-04-24T06:44:54;9.77;;;2.97;;
42632;SDS011;28261;53.304;-6.284;2023-04-24T06:46:59;11.25;;;2.60;;
42632;SDS011;28261;53.304;-6.284;2023-04-24T06:49:03;8.38;;;2.55;;
42632;SDS011;28261;53.304;-6.284;2023-04-24T06:51:10;9.35;;;2.22;;
42632;SDS011;28261;53.304;-6.284;2023-04-24T06:53:14;8.70;;;2.55;;
42632;SDS011;28261;53.304;-6.284;2023-04-24T06:55:19;8.43;;;2.40;;
42632;SDS011;28261;53.304;-6.284;2023-04-24T06:57:23;11.38;;;2.88;;
42632;SDS011;28261;53.304;-6.284;2023-04-24T06:59:28;5.20;;;1.88;;
42632;SDS011;28261;53.304;-6.284;2023-04-24T07:01:32;9.20;;;1.90;;
42632;SDS011;28261;53.304;-6.284;2023-04-24T07:03:37;7.47;;;2.67;;
42632;SDS011;28261;53.304;-6.284;2023-04-24T07:05:42;7.40;;;2.13;;
42632;SDS011;28261;53.304;-6.284;2023-04-24T07:07:50;8.98;;;1.75;;
42632;SDS011;28261;53.304;-6.284;2023-04-24T07:09:54;5.30;;;2.13;;
42632;SDS011;28261;53.304;-6.284;2023-04-24T07:11:59;4.40;;;2.05;;
42632;SDS011;28261;53.304;-6.284;2023-04-24T07:14:03;5.78;;;1.83;;
42632;SDS011;28261;53.304;-6.284;2023-04-24T07:16:07;7.32;;;1.85;;
42632;SDS011;28261;53.304;-6.284;2023-04-24T07:18:12;7.45;;;1.70;;
42632;SDS011;28261;53.304;-6.284;2023-04-24T07:20:17;4.85;;;1.67;;
42632;SDS011;28261;53.304;-6.284;2023-04-24T07:22:22;5.95;;;1.70;;
42632;SDS011;28261;53.304;-6.284;2023-04-24T07:24:27;3.45;;;1.55;;
42632;SDS011;28261;53.304;-6.284;2023-04-24T07:26:32;6.75;;;1.98;;
42632;SDS011;28261;53.304;-6.284;2023-04-24T07:28:36;5.18;;;2.40;;
42632;SDS011;28261;53.304;-6.284;2023-04-24T07:30:40;8.48;;;1.63;;
42632;SDS011;28261;53.304;-6.284;2023-04-24T07:32:45;5.43;;;1.95;;
42632;SDS011;28261;53.304;-6.284;2023-04-24T07:34:50;4.97;;;2.78;;
42632;SDS011;28261;53.304;-6.284;2023-04-24T07:36:55;9.10;;;2.63;;
42632;SDS011;28261;53.304;-6.284;2023-04-24T07:38:59;6.22;;;1.73;;
42632;SDS011;28261;53.304;-6.284;2023-04-24T07:41:05;12.18;;;2.70;;
42632;SDS011;28261;53.304;-6.284;2023-04-24T07:43:10;5.78;;;1.95;;
42632;SDS011;28261;53.304;-6.284;2023-04-24T07:45:14;5.68;;;1.63;;
42632;SDS011;28261;53.304;-6.284;2023-04-24T07:47:18;5.78;;;2.08;;
42632;SDS011;28261;53.304;-6.284;2023-04-24T07:49:23;5.07;;;1.85;;
42632;SDS011;28261;53.304;-6.284;2023-04-24T07:51:30;8.32;;;2.33;;
42632;SDS011;28261;53.304;-6.284;2023-04-24T07:53:35;5.55;;;1.95;;
42632;SDS011;28261;53.304;-6.284;2023-04-24T07:55:40;6.05;;;2.00;;
42632;SDS011;28261;53.304;-6.284;2023-04-24T07:57:46;5.57;;;1.83;;
42632;SDS011;28261;53.304;-6.284;2023-04-24T07:59:51;10.65;;;2.25;;
42632;SDS011;28261;53.304;-6.284;2023-04-24T08:01:55;8.27;;;2.20;;
42632;SDS011;28261;53.304;-6.284;2023-04-24T08:04:00;7.85;;;2.10;;
42632;SDS011;28261;53.304;-6.284;2023-04-24T08:06:05;6.72;;;2.08;;
42632;SDS011;28261;53.304;-6.284;2023-04-24T08:08:11;9.07;;;2.58;;
42632;SDS011;28261;53.304;-6.284;2023-04-24T08:10:15;5.22;;;2.17;;
42632;SDS011;28261;53.304;-6.284;2023-04-24T08:12:20;11.55;;;2.67;;
42632;SDS011;28261;53.304;-6.284;2023-04-24T08:14:27;7.40;;;2.35;;
42632;SDS011;28261;53.304;-6.284;2023-04-24T08:16:32;6.45;;;2.58;;
42632;SDS011;28261;53.304;-6.284;2023-04-24T08:18:37;11.05;;;2.00;;
42632;SDS011;28261;53.304;-6.284;2023-04-24T08:20:42;9.02;;;2.40;;
42632;SDS011;28261;53.304;-6.284;2023-04-24T08:22:47;7.85;;;2.17;;
42632;SDS011;28261;53.304;-6.284;2023-04-24T08:24:52;7.22;;;2.25;;
42632;SDS011;28261;53.304;-6.284;2023-04-24T08:26:57;5.18;;;2.17;;
42632;SDS011;28261;53.304;-6.284;2023-04-24T08:29:01;10.65;;;2.20;;
42632;SDS011;28261;53.304;-6.284;2023-04-24T08:31:08;7.47;;;2.15;;
42632;SDS011;28261;53.304;-6.284;2023-04-24T08:33:13;13.15;;;4.35;;
42632;SDS011;28261;53.304;-6.284;2023-04-24T08:35:18;7.65;;;2.28;;
42632;SDS011;28261;53.304;-6.284;2023-04-24T08:37:22;5.97;;;2.22;;
42632;SDS011;28261;53.304;-6.284;2023-04-24T08:39:27;8.82;;;2.42;;
42632;SDS011;28261;53.304;-6.284;2023-04-24T08:41:32;7.55;;;2.42;;
42632;SDS011;28261;53.304;-6.284;2023-04-24T08:43:38;7.40;;;2.10;;
42632;SDS011;28261;53.304;-6.284;2023-04-24T08:45:44;7.78;;;2.55;;
42632;SDS011;28261;53.304;-6.284;2023-04-24T08:47:51;11.80;;;2.65;;
42632;SDS011;28261;53.304;-6.284;2023-04-24T08:49:57;4.28;;;2.28;;
42632;SDS011;28261;53.304;-6.284;2023-04-24T08:52:05;10.23;;;2.75;;
42632;SDS011;28261;53.304;-6.284;2023-04-24T08:54:11;6.93;;;1.77;;
42632;SDS011;28261;53.304;-6.284;2023-04-24T08:56:16;7.72;;;2.00;;
42632;SDS011;28261;53.304;-6.284;2023-04-24T08:58:21;6.40;;;1.70;;
42632;SDS011;28261;53.304;-6.284;2023-04-24T09:00:28;7.32;;;1.40;;
42632;SDS011;28261;53.304;-6.284;2023-04-24T09:02:33;9.60;;;1.50;;
42632;SDS011;28261;53.304;-6.284;2023-04-24T09:04:40;6.57;;;1.50;;
42632;SDS011;28261;53.304;-6.284;2023-04-24T09:06:47;4.43;;;1.75;;
42632;SDS011;28261;53.304;-6.284;2023-04-24T09:08:52;7.07;;;1.85;;
42632;SDS011;28261;53.304;-6.284;2023-04-24T09:10:59;1.80;;;1.33;;
42632;SDS011;28261;53.304;-6.284;2023-04-24T09:13:05;7.50;;;1.90;;
42632;SDS011;28261;53.304;-6.284;2023-04-24T09:15:11;3.90;;;1.30;;
42632;SDS011;28261;53.304;-6.284;2023-04-24T09:17:16;5.25;;;2.00;;
42632;SDS011;28261;53.304;-6.284;2023-04-24T09:19:20;4.22;;;2.05;;
42632;SDS011;28261;53.304;-6.284;2023-04-24T09:21:27;3.95;;;1.38;;
42632;SDS011;28261;53.304;-6.284;2023-04-24T09:23:36;6.85;;;2.28;;
42632;SDS011;28261;53.304;-6.284;2023-04-24T09:27:46;6.22;;;1.98;;
42632;SDS011;28261;53.304;-6.284;2023-04-24T09:29:54;6.15;;;1.55;;
42632;SDS011;28261;53.304;-6.284;2023-04-24T09:31:58;9.75;;;2.10;;
42632;SDS011;28261;53.304;-6.284;2023-04-24T09:34:03;5.88;;;1.95;;
42632;SDS011;28261;53.304;-6.284;2023-04-24T09:36:09;8.05;;;1.83;;
42632;SDS011;28261;53.304;-6.284;2023-04-24T09:38:15;10.05;;;1.90;;
42632;SDS011;28261;53.304;-6.284;2023-04-24T09:40:21;5.90;;;1.70;;
42632;SDS011;28261;53.304;-6.284;2023-04-24T09:42:26;6.55;;;2.17;;
42632;SDS011;28261;53.304;-6.284;2023-04-24T09:44:34;5.30;;;1.63;;
42632;SDS011;28261;53.304;-6.284;2023-04-24T09:46:38;4.95;;;1.80;;
42632;SDS011;28261;53.304;-6.284;2023-04-24T09:48:45;3.17;;;1.42;;
42632;SDS011;28261;53.304;-6.284;2023-04-24T09:50:51;4.13;;;1.80;;
42632;SDS011;28261;53.304;-6.284;2023-04-24T09:52:57;4.38;;;1.95;;
42632;SDS011;28261;53.304;-6.284;2023-04-24T09:55:07;4.00;;;1.42;;
42632;SDS011;28261;53.304;-6.284;2023-04-24T09:57:14;5.15;;;1.80;;
42632;SDS011;28261;53.304;-6.284;2023-04-24T09:59:19;3.42;;;1.98;;
42632;SDS011;28261;53.304;-6.284;2023-04-24T10:01:29;7.47;;;2.20;;
42632;SDS011;28261;53.304;-6.284;2023-04-24T10:03:35;6.82;;;1.98;;
42632;SDS011;28261;53.304;-6.284;2023-04-24T10:05:39;4.35;;;1.70;;
42632;SDS011;28261;53.304;-6.284;2023-04-24T10:07:45;7.95;;;2.40;;
42632;SDS011;28261;53.304;-6.284;2023-04-24T10:09:51;7.60;;;1.80;;
42632;SDS011;28261;53.304;-6.284;2023-04-24T10:11:58;6.05;;;1.45;;
42632;SDS011;28261;53.304;-6.284;2023-04-24T10:14:04;4.40;;;1.85;;
42632;SDS011;28261;53.304;-6.284;2023-04-24T10:16:09;7.68;;;2.60;;
42632;SDS011;28261;53.304;-6.284;2023-04-24T10:18:15;3.75;;;1.52;;
42632;SDS011;28261;53.304;-6.284;2023-04-24T10:22:25;3.22;;;1.23;;
42632;SDS011;28261;53.304;-6.284;2023-04-24T10:24:33;4.50;;;1.10;;
42632;SDS011;28261;53.304;-6.284;2023-04-24T10:26:40;3.80;;;1.20;;
42632;SDS011;28261;53.304;-6.284;2023-04-24T10:28:47;4.60;;;1.75;;
42632;SDS011;28261;53.304;-6.284;2023-04-24T10:30:52;2.25;;;0.93;;
42632;SDS011;28261;53.304;-6.284;2023-04-24T10:32:59;8.55;;;2.15;;
42632;SDS011;28261;53.304;-6.284;2023-04-24T10:35:04;7.88;;;1.63;;
42632;SDS011;28261;53.304;-6.284;2023-04-24T10:37:10;5.78;;;1.92;;
42632;SDS011;28261;53.304;-6.284;2023-04-24T10:39:15;3.88;;;1.27;;
42632;SDS011;28261;53.304;-6.284;2023-04-24T10:41:29;6.38;;;1.27;;
42632;SDS011;28261;53.304;-6.284;2023-04-24T10:43:34;4.30;;;1.35;;
42632;SDS011;28261;53.304;-6.284;2023-04-24T10:45:41;6.47;;;1.33;;
42632;SDS011;28261;53.304;-6.284;2023-04-24T10:48:06;5.22;;;1.55;;
42632;SDS011;28261;53.304;-6.284;2023-04-24T10:50:13;7.82;;;1.40;;
42632;SDS011;28261;53.304;-6.284;2023-04-24T10:52:18;6.28;;;1.83;;
42632;SDS011;28261;53.304;-6.284;2023-04-24T10:54:24;6.07;;;1.52;;
42632;SDS011;28261;53.304;-6.284;2023-04-24T10:56:29;5.78;;;2.00;;
42632;SDS011;28261;53.304;-6.284;2023-04-24T10:58:37;3.40;;;1.50;;
42632;SDS011;28261;53.304;-6.284;2023-04-24T11:00:48;5.50;;;2.08;;
42632;SDS011;28261;53.304;-6.284;2023-04-24T11:03:01;3.97;;;1.77;;
42632;SDS011;28261;53.304;-6.284;2023-04-24T11:05:10;3.83;;;1.50;;
42632;SDS011;28261;53.304;-6.284;2023-04-24T11:07:15;5.20;;;2.28;;
42632;SDS011;28261;53.304;-6.284;2023-04-24T11:09:21;2.70;;;1.38;;
42632;SDS011;28261;53.304;-6.284;2023-04-24T11:11:28;5.28;;;2.00;;
42632;SDS011;28261;53.304;-6.284;2023-04-24T11:16:14;5.28;;;1.65;;
42632;SDS011;28261;53.304;-6.284;2023-04-24T11:18:25;4.80;;;1.52;;
42632;SDS011;28261;53.304;-6.284;2023-04-24T11:20:44;5.90;;;1.23;;
42632;SDS011;28261;53.304;-6.284;2023-04-24T11:22:51;4.53;;;1.38;;
42632;SDS011;28261;53.304;-6.284;2023-04-24T11:24:58;4.35;;;2.10;;
42632;SDS011;28261;53.304;-6.284;2023-04-24T11:27:09;5.32;;;2.00;;
42632;SDS011;28261;53.304;-6.284;2023-04-24T11:29:17;6.78;;;2.40;;
42632;SDS011;28261;53.304;-6.284;2023-04-24T11:31:38;6.80;;;1.63;;
42632;SDS011;28261;53.304;-6.284;2023-04-24T11:33:44;3.47;;;1.48;;
42632;SDS011;28261;53.304;-6.284;2023-04-24T11:35:51;4.43;;;1.45;;
42632;SDS011;28261;53.304;-6.284;2023-04-24T11:40:25;6.00;;;1.42;;
42632;SDS011;28261;53.304;-6.284;2023-04-24T11:42:36;7.32;;;1.52;;
42632;SDS011;28261;53.304;-6.284;2023-04-24T11:44:41;4.55;;;1.45;;
42632;SDS011;28261;53.304;-6.284;2023-04-24T11:46:48;8.13;;;2.10;;
42632;SDS011;28261;53.304;-6.284;2023-04-24T11:48:52;3.42;;;1.52;;
42632;SDS011;28261;53.304;-6.284;2023-04-24T11:53:01;4.93;;;1.80;;
42632;SDS011;28261;53.304;-6.284;2023-04-24T11:55:08;5.07;;;1.45;;
42632;SDS011;28261;53.304;-6.284;2023-04-24T11:57:26;3.40;;;1.58;;
42632;SDS011;28261;53.304;-6.284;2023-04-24T11:59:36;3.22;;;1.90;;
42632;SDS011;28261;53.304;-6.284;2023-04-24T12:01:43;9.13;;;1.92;;
42632;SDS011;28261;53.304;-6.284;2023-04-24T12:03:50;3.45;;;1.60;;
42632;SDS011;28261;53.304;-6.284;2023-04-24T12:06:04;5.30;;;1.73;;
42632;SDS011;28261;53.304;-6.284;2023-04-24T12:08:10;5.97;;;1.33;;
42632;SDS011;28261;53.304;-6.284;2023-04-24T12:10:19;5.63;;;1.40;;
42632;SDS011;28261;53.304;-6.284;2023-04-24T12:12:24;5.80;;;1.73;;
42632;SDS011;28261;53.304;-6.284;2023-04-24T12:14:30;9.38;;;2.28;;
42632;SDS011;28261;53.304;-6.284;2023-04-24T12:16:34;6.25;;;1.83;;
42632;SDS011;28261;53.304;-6.284;2023-04-24T12:18:42;7.78;;;1.92;;
42632;SDS011;28261;53.304;-6.284;2023-04-24T12:20:49;3.50;;;1.23;;
42632;SDS011;28261;53.304;-6.284;2023-04-24T12:22:55;4.50;;;1.90;;
42632;SDS011;28261;53.304;-6.284;2023-04-24T12:25:00;7.70;;;1.20;;
42632;SDS011;28261;53.304;-6.284;2023-04-24T12:27:05;9.27;;;2.50;;
42632;SDS011;28261;53.304;-6.284;2023-04-24T12:29:19;11.27;;;1.85;;
42632;SDS011;28261;53.304;-6.284;2023-04-24T12:31:23;6.63;;;2.00;;
42632;SDS011;28261;53.304;-6.284;2023-04-24T12:33:32;9.15;;;2.00;;
42632;SDS011;28261;53.304;-6.284;2023-04-24T12:35:39;6.65;;;2.00;;
42632;SDS011;28261;53.304;-6.284;2023-04-24T12:37:46;3.65;;;1.60;;
42632;SDS011;28261;53.304;-6.284;2023-04-24T12:39:59;7.43;;;1.90;;
42632;SDS011;28261;53.304;-6.284;2023-04-24T12:42:04;3.83;;;1.27;;